Station: Amberley

  Atmospheric Gas Attenuation - ITU Rec 676-11   --------------- db/100km ---------------
Date Time Temp RH % AH g/m3 Dew Point Wind Direction Speed kph Gust kph Barometer mB Rainfall Since 9am 24GHz 47GHz 76GHz 122GHz 134GHz 241GHz
27 01:40 22.6 90 18.08 20.9 7 9 1010.3 0 39.3 39.3 75.0 198.5 217.2 753.9
27 01:30 22.5 89 17.78 20.6 0 0 1010.7 0 38.6 38.8 73.7 195.0 212.9 738.9
27 01:20 22.5 89 17.78 20.6 0 0 1010.7 0 38.6 38.8 73.7 195.0 212.9 738.9
27 01:10 22.5 89 17.78 20.6 6 6 1010.7 0 38.6 38.8 73.7 195.0 212.9 738.9
27 01:00 22.6 89 17.88 20.7 0 0 1011 0 38.8 38.9 74.1 196.1 214.2 743.5
27 00:50 22.4 89 17.67 20.5 0 0 1011 0 38.4 38.6 73.3 193.9 211.5 734.1
27 00:40 22.5 90 17.98 20.8 7 7 1010.9 0 39.1 39.2 74.7 197.6 216.0 749.8
27 00:30 22.4 89 17.67 20.5 9 9 1011.2 0 38.4 38.6 73.4 194.0 211.5 734.2
27 00:20 22.5 88 17.58 20.4 7 7 1011.2 0 38.2 38.4 72.8 192.6 209.8 728.4
27 00:10 22.9 88 17.98 20.8 7 7 1011.2 0 39.0 39.0 74.3 196.6 214.9 746.0
27 00:00 23 88 18.09 20.9 7 9 1011.2 0 39.2 39.2 74.8 197.7 216.3 750.9
26 23:50 22.8 88 17.88 20.7 7 7 1011.3 0 38.8 38.9 74.0 195.6 213.6 741.7
26 23:40 22.7 88 17.78 20.6 9 9 1011.4 0 38.6 38.7 73.6 194.6 212.4 737.3
26 23:30 22.8 87 17.68 20.5 9 11 1011.5 0 38.4 38.5 73.0 193.1 210.6 731.0
26 23:20 23 88 18.09 20.9 11 11 1011.4 0 39.2 39.2 74.8 197.7 216.3 751.0
26 23:10 23 87 17.88 20.7 9 9 1011.4 0 38.8 38.8 73.8 195.1 213.1 739.7
26 23:00 23.2 86 17.88 20.7 7 9 1011.6 0 38.8 38.7 73.6 194.6 212.5 737.9
26 22:49 23.3 86 17.98 20.8 7 9 1011.6 0 39.0 38.8 74.0 195.6 213.8 742.3
26 22:40 23.4 85 17.87 20.7 7 9 1011.6 0 38.7 38.6 73.3 194.0 211.8 735.4
26 22:30 23.6 85 18.08 20.9 7 7 1011.7 0 39.2 38.9 74.1 196.1 214.5 744.7
26 22:20 23.6 84 17.86 20.7 7 9 1011.6 0 38.7 38.5 73.1 193.3 211.1 732.9
26 22:10 23.6 84 17.86 20.7 9 9 1011.6 0 38.7 38.5 73.1 193.3 211.1 732.9
26 22:00 23.9 82 17.74 20.6 0 0 1011.6 0 38.4 38.1 72.3 191.1 208.4 723.7
26 21:50 24.1 82 17.94 20.8 0 0 1011.7 0 38.8 38.4 73.0 193.1 210.9 732.4
26 21:40 24.3 79 17.48 20.4 4 6 1011.7 0 37.8 37.5 70.7 186.9 203.4 706.3
26 21:30 24.5 79 17.68 20.6 7 9 1011.7 0 38.2 37.7 71.4 188.9 205.9 714.9
26 21:20 24.6 79 17.78 20.7 7 9 1011.5 0 38.4 37.9 71.8 189.8 207.1 719.1
26 21:10 24.7 78 17.65 20.6 9 9 1011.5 0 38.1 37.6 71.1 188.0 204.8 711.3
26 21:00 24.8 78 17.75 20.7 9 11 1011.4 0 38.3 37.7 71.4 188.9 206.1 715.6
26 20:50 24.8 78 17.75 20.7 11 13 1011.1 0 38.3 37.7 71.4 188.9 206.0 715.4
26 20:40 25 77 17.72 20.7 11 11 1011.1 0 38.3 37.6 71.1 188.0 205.0 712.0
26 20:30 25 77 17.72 20.7 11 19 1011.1 0 38.3 37.6 71.1 188.0 205.0 712.0
26 20:19 25.3 75 17.56 20.5 15 17 1010.7 0 37.9 37.1 70.1 185.3 201.8 700.7
26 20:10 25.4 74 17.42 20.4 15 19 1010.6 0 37.6 36.8 69.3 183.4 199.4 692.6
26 20:00 25.5 73 17.28 20.3 20 30 1010.5 0 37.3 36.5 68.6 181.4 197.1 684.5
26 19:50 25.7 72 17.24 20.3 15 19 1010.3 0 37.2 36.3 68.2 180.5 196.0 680.6
26 19:40 25.9 71 17.19 20.2 20 26 1010 0 37.1 36.2 67.8 179.4 194.7 676.1
26 19:30 26.1 71 17.38 20.4 22 30 1009.9 0 37.4 36.4 68.5 181.1 196.9 683.9
26 19:20 26.3 70 17.33 20.4 19 26 1009.6 0 37.3 36.2 68.1 180.0 195.6 679.4
26 19:10 26.5 68 17.02 20.3 19 24 1009.4 0 36.6 35.6 66.5 175.9 190.6 662.0
26 19:00 26.7 69 17.47 20.5 20 28 1009.3 0 37.6 36.3 68.3 180.7 196.6 682.8
26 18:50 27 69 17.76 20.8 20 24 1009.1 0 38.2 36.7 69.3 183.4 199.9 694.6
26 18:40 27.2 68 17.7 20.8 19 22 1008.9 0 38.0 36.5 68.9 182.1 198.5 689.7
26 18:30 27.5 67 17.73 20.8 20 30 1008.8 0 38.0 36.4 68.7 181.8 198.2 688.5
26 18:20 27.7 66 17.66 20.8 22 28 1008.6 0 37.9 36.2 68.2 180.5 196.6 683.1
26 18:10 28 64 17.41 20.6 17 19 1008.4 0 37.3 35.6 66.9 176.8 192.3 668.0
26 18:00 28.5 62 17.33 20.5 26 33 1008.2 0 37.1 35.2 66.1 174.8 189.8 659.6
26 17:50 29 61 17.52 20.7 28 33 1008.1 0 37.5 35.4 66.5 175.8 191.2 664.6
26 17:40 29.3 59 17.23 20.7 24 30 1007.9 0 36.8 34.7 65.0 171.8 186.4 647.9
26 17:30 29.8 57 17.1 20.6 28 32 1007.6 0 36.5 34.3 64.0 169.2 183.4 637.4
26 17:20 30.2 55 16.86 20.4 26 28 1007.4 0 36.0 33.7 62.6 165.7 179.2 622.7
26 17:10 30.9 56 17.83 21.1 24 30 1007.2 0 37.9 35.1 66.1 174.9 190.7 662.9
26 17:00 31.3 54 17.57 20.9 20 32 1007.2 0 37.4 34.5 64.7 171.1 186.1 647.1
26 16:50 31.5 51 16.77 20.4 20 24 1007.2 0 35.7 33.1 61.2 161.9 175.0 608.2
26 16:40 32 50 16.88 20.3 19 20 1007.1 0 35.9 33.1 61.3 162.1 175.3 609.3
26 16:30 31.9 49 16.46 19.9 19 30 1007 0 35.0 32.4 59.7 157.8 170.0 590.8
26 16:20 32.1 48 16.3 19.7 19 20 1006.9 0 34.7 32.1 58.9 155.7 167.4 582.0
26 16:10 32.7 46 16.12 19.9 24 26 1006.9 0 34.2 31.6 57.7 152.6 163.8 569.5
26 16:00 32.8 43 15.15 18.9 17 24 1006.8 0 32.2 30.0 53.9 142.5 151.4 526.1
26 15:50 32.9 45 15.94 19.4 13 15 1006.9 0 33.8 31.2 56.9 150.4 161.1 560.1
26 15:40 33.2 45 16.2 20 11 13 1006.9 0 34.4 31.5 57.7 152.5 163.8 569.5
26 15:30 33 43 15.31 19.1 13 24 1006.9 0 32.5 30.2 54.4 143.7 153.0 531.8
26 15:20 32.8 43 15.15 18.9 9 11 1007.1 0 32.2 30.0 53.9 142.5 151.4 526.2
26 15:10 33 42 14.96 18.7 13 15 1007.2 0 31.8 29.7 53.1 140.2 148.7 516.7
26 15:00 33 43 15.31 19.1 9 24 1007.3 0 32.5 30.2 54.4 143.8 153.1 531.9
26 14:50 32.8 43 15.15 18.9 20 24 1007.4 0 32.2 30.1 53.9 142.5 151.5 526.3
26 14:40 32.8 45 15.86 19.3 19 20 1007.5 0 33.7 31.2 56.7 149.8 160.4 557.5
26 14:30 32.6 46 16.04 19.5 7 13 1007.6 0 34.1 31.5 57.5 152.1 163.1 567.0
26 14:20 32.4 44 15.18 18.9 9 9 1007.8 0 32.3 30.3 54.3 143.6 152.7 530.4
26 14:10 32.8 45 15.86 19.6 11 13 1007.9 0 33.7 31.2 56.7 149.9 160.4 557.7
26 14:00 32.1 45 15.28 18.7 7 9 1008 0 32.5 30.5 54.9 145.2 154.5 536.9
26 13:50 32.6 49 17.08 20.5 11 15 1008.2 0 36.2 33.2 61.7 163.1 176.7 614.3
26 13:40 32.3 46 15.78 19.5 7 7 1008.3 0 33.6 31.2 56.8 150.0 160.5 557.8
26 13:30 32.5 46 15.95 19.4 11 13 1008.5 0 33.9 31.4 57.3 151.4 162.3 564.1
26 13:20 31.9 45 15.12 18.8 4 6 1008.8 0 32.2 30.4 54.5 144.0 153.0 531.5
26 13:10 32 47 15.87 19.3 11 11 1008.9 0 33.8 31.5 57.4 151.6 162.3 564.2
26 13:00 31.9 48 16.12 19.8 9 11 1009 0 34.3 32.0 58.4 154.4 165.8 576.2
26 12:50 31.6 49 16.2 19.6 11 15 1009.1 0 34.5 32.2 59.0 155.9 167.5 582.1
26 12:40 31.9 47 15.79 19.2 11 11 1009.1 0 33.6 31.4 57.1 151.0 161.5 561.4
26 12:30 31.2 51 16.5 19.9 7 11 1009.2 0 35.1 32.8 60.5 159.9 172.3 598.9
26 12:20 30.9 50 15.92 19.3 11 13 1009.3 0 34.0 32.0 58.4 154.3 165.4 574.6
26 12:10 31.2 48 15.53 19.2 6 11 1009.5 0 33.1 31.3 56.6 149.6 159.7 554.9
26 12:00 31.4 48 15.7 19.1 7 9 1009.6 0 33.5 31.5 57.2 151.1 161.5 561.1
26 11:50 31.1 52 16.74 20.1 9 11 1009.8 0 35.6 33.3 61.6 162.8 175.8 611.0
26 11:40 30.8 48 15.2 18.8 11 13 1009.9 0 32.5 30.9 55.6 147.0 156.3 543.0
26 11:30 31 54 17.29 20.6 4 6 1009.9 0 36.8 34.2 63.9 169.0 183.4 637.6
26 11:20 30.2 55 16.86 20.2 9 13 1010.1 0 36.0 33.8 62.8 166.0 179.5 623.9
26 11:10 30.1 52 15.86 19.2 9 11 1010.2 0 33.9 32.2 58.8 155.4 166.4 578.1
26 11:00 30 55 16.68 20 9 9 1010.3 0 35.6 33.6 62.2 164.5 177.6 617.1
26 10:50 30.1 54 16.47 19.8 6 7 1010.4 0 35.2 33.2 61.3 162.0 174.5 606.5
26 10:40 29.7 53 15.82 19.1 7 13 1010.4 0 33.8 32.3 58.9 155.7 166.7 579.3
26 10:30 29.2 54 15.68 19.2 6 7 1010.6 0 33.6 32.3 58.8 155.2 166.0 576.6
26 10:20 29.3 55 16.06 19.3 9 11 1010.7 0 34.4 32.9 60.2 159.2 170.9 593.6
26 10:10 28.9 57 16.29 19.5 11 13 1010.8 0 34.9 33.4 61.5 162.6 174.9 607.5
26 10:00 28.6 59 16.58 19.8 7 9 1010.8 0 35.5 34.0 63.0 166.4 179.5 623.7
26 09:50 27.9 60 16.23 19.4 11 11 1010.8 0 34.8 33.7 62.0 164.0 176.3 612.5
26 09:40 28.4 60 16.68 19.9 9 9 1010.9 0 35.7 34.3 63.5 168.0 181.4 630.2
26 09:30 28.1 62 16.95 20.1 7 11 1010.9 0 36.3 34.9 64.9 171.7 185.9 645.7
26 09:20 28 61 16.59 20 4 6 1011 0 35.6 34.3 63.5 167.8 181.1 629.1
26 09:10 27.8 61 16.41 19.6 4 7 1011.1 0 35.2 34.1 62.9 166.3 179.1 622.1

Last Refresh: 27-Feb-2021 02:20:24

Most of the information presented on this site is sourced from the Bureau of Meteorology.  Copyright in all material sourced from the Bureau of Meteorology resides with the Commonwealth of Australia.